createdAt,value
2022-09-23T00:02:18.090Z,1.20
2022-09-23T00:04:46.908Z,1.20
2022-09-23T00:07:15.095Z,1.10
2022-09-23T00:09:43.382Z,1.50
2022-09-23T00:12:11.736Z,1.20
2022-09-23T00:14:40.898Z,1.10
2022-09-23T00:17:09.200Z,1.77
2022-09-23T00:19:41.341Z,1.50
2022-09-23T00:22:09.760Z,1.20
2022-09-23T00:24:37.949Z,1.47
2022-09-23T00:27:06.628Z,1.30
2022-09-23T00:29:35.032Z,1.00
2022-09-23T00:32:04.000Z,1.10
2022-09-23T00:34:32.899Z,1.20
2022-09-23T00:37:02.511Z,1.40
2022-09-23T00:39:30.741Z,1.70
2022-09-23T00:41:59.076Z,0.90
2022-09-23T00:44:45.969Z,1.40
2022-09-23T00:47:19.360Z,1.00
2022-09-23T00:49:51.085Z,1.13
2022-09-23T00:52:24.528Z,1.43
2022-09-23T00:54:56.457Z,1.30
2022-09-23T00:57:25.825Z,1.03
2022-09-23T00:59:54.261Z,1.10
2022-09-23T01:02:22.710Z,0.90
2022-09-23T01:04:52.089Z,1.10
2022-09-23T01:07:21.956Z,1.20
2022-09-23T01:09:51.078Z,1.00
2022-09-23T01:12:59.700Z,0.90
2022-09-23T01:15:38.861Z,1.10
2022-09-23T01:18:14.888Z,1.23
2022-09-23T01:20:59.397Z,0.93
2022-09-23T01:23:55.460Z,1.13
2022-09-23T01:26:43.865Z,1.07
2022-09-23T01:29:35.417Z,1.20
2022-09-23T01:32:14.318Z,1.20
2022-09-23T01:34:51.596Z,0.90
2022-09-23T01:37:28.765Z,1.50
2022-09-23T01:40:05.197Z,1.23
2022-09-23T01:42:40.776Z,1.00
2022-09-23T01:45:16.259Z,1.27
2022-09-23T01:47:52.470Z,1.20
2022-09-23T01:50:41.865Z,0.90
2022-09-23T01:53:16.721Z,1.00
2022-09-23T01:55:50.142Z,1.00
2022-09-23T01:58:24.486Z,1.20
2022-09-23T02:00:59.517Z,1.27
2022-09-23T02:03:32.495Z,1.20
2022-09-23T02:06:05.512Z,1.10
2022-09-23T02:08:36.839Z,1.30
2022-09-23T02:11:08.808Z,1.10
2022-09-23T02:13:42.298Z,1.20
2022-09-23T02:16:17.493Z,1.50
2022-09-23T02:18:53.007Z,1.17
2022-09-23T02:21:25.201Z,1.20
2022-09-23T02:23:59.837Z,1.30
2022-09-23T02:26:34.946Z,1.23
2022-09-23T02:29:10.708Z,1.30
2022-09-23T02:31:43.723Z,1.23
2022-09-23T02:34:22.063Z,1.20
2022-09-23T02:37:01.205Z,1.30
2022-09-23T02:39:38.235Z,1.10
2022-09-23T02:42:10.769Z,1.20
2022-09-23T02:44:39.172Z,1.20
2022-09-23T02:47:08.028Z,1.50
2022-09-23T02:49:37.776Z,1.60
2022-09-23T02:52:07.843Z,1.57
2022-09-23T02:54:36.354Z,1.30
2022-09-23T02:57:07.569Z,1.30
2022-09-23T02:59:38.129Z,1.03
2022-09-23T03:02:26.723Z,1.40
2022-09-23T03:05:06.604Z,1.13
2022-09-23T03:07:45.183Z,1.10
2022-09-23T03:10:20.345Z,1.40
2022-09-23T03:12:58.688Z,1.00
2022-09-23T03:15:36.705Z,1.20
2022-09-23T03:18:14.608Z,1.47
2022-09-23T03:20:51.141Z,1.40
2022-09-23T03:23:25.304Z,1.50
2022-09-23T03:25:56.753Z,1.03
2022-09-23T03:28:27.905Z,1.07
2022-09-23T03:30:57.680Z,0.80
2022-09-23T03:33:29.118Z,1.20
2022-09-23T03:36:22.001Z,1.20
2022-09-23T03:38:53.281Z,1.20
2022-09-23T03:41:29.005Z,1.27
2022-09-23T03:43:59.038Z,1.43
2022-09-23T03:46:30.279Z,1.23
2022-09-23T03:49:05.530Z,1.00
2022-09-23T03:51:35.255Z,1.13
2022-09-23T03:54:03.666Z,1.27
2022-09-23T03:56:31.977Z,1.00
2022-09-23T03:59:00.169Z,1.10
2022-09-23T04:01:29.974Z,1.17
2022-09-23T04:04:00.175Z,1.40
2022-09-23T04:06:28.445Z,1.00
2022-09-23T04:08:58.464Z,1.20
2022-09-23T04:11:26.707Z,1.30
2022-09-23T04:13:56.173Z,1.10
2022-09-23T04:16:24.711Z,1.20
2022-09-23T04:18:53.055Z,1.17
2022-09-23T04:21:21.354Z,1.10
2022-09-23T04:23:49.863Z,1.10
2022-09-23T04:26:20.292Z,1.70
2022-09-23T04:28:48.540Z,1.20
2022-09-23T04:31:16.927Z,1.30
2022-09-23T04:33:45.207Z,1.63
2022-09-23T04:36:13.471Z,1.37
2022-09-23T04:38:44.243Z,1.30
2022-09-23T04:41:12.746Z,1.30
2022-09-23T04:43:42.660Z,1.60
2022-09-23T04:46:13.042Z,1.37
2022-09-23T04:48:42.657Z,1.30
2022-09-23T04:51:12.843Z,1.60
2022-09-23T04:53:43.963Z,1.87
2022-09-23T04:56:15.015Z,2.00
2022-09-23T04:58:45.653Z,1.40
2022-09-23T05:01:16.314Z,1.20
2022-09-23T05:03:45.777Z,1.57
2022-09-23T05:06:16.058Z,1.40
2022-09-23T05:08:49.527Z,1.30
2022-09-23T05:11:18.874Z,1.00
2022-09-23T05:13:49.225Z,1.77
2022-09-23T05:16:17.954Z,1.23
2022-09-23T05:18:47.329Z,1.30
2022-09-23T05:21:17.196Z,1.30
2022-09-23T05:23:50.036Z,2.20
2022-09-23T05:26:18.319Z,2.00
2022-09-23T05:28:46.487Z,1.20
2022-09-23T05:31:20.287Z,1.30
2022-09-23T05:33:51.926Z,1.40
2022-09-23T05:36:21.374Z,1.37
2022-09-23T05:38:50.939Z,1.20
2022-09-23T05:41:23.113Z,1.20
2022-09-23T05:43:52.004Z,1.27
2022-09-23T05:46:24.521Z,1.17
2022-09-23T05:48:53.012Z,1.13
2022-09-23T05:51:22.609Z,1.60
2022-09-23T05:53:54.123Z,1.10
2022-09-23T05:56:24.269Z,1.90
2022-09-23T05:58:55.771Z,1.40
2022-09-23T06:01:28.398Z,1.37
2022-09-23T06:03:58.376Z,1.40
2022-09-23T06:06:30.653Z,1.03
2022-09-23T06:09:00.312Z,1.20
2022-09-23T06:11:31.416Z,1.40
2022-09-23T06:14:02.321Z,0.97
2022-09-23T06:16:33.800Z,1.30
2022-09-23T06:19:06.332Z,1.30
2022-09-23T06:21:36.646Z,1.23
2022-09-23T06:24:06.417Z,1.33
2022-09-23T06:26:35.512Z,1.50
2022-09-23T06:29:09.605Z,1.20
2022-09-23T06:31:41.246Z,1.30
2022-09-23T06:34:13.249Z,1.40
2022-09-23T06:36:44.907Z,1.20
2022-09-23T06:39:14.142Z,1.10
2022-09-23T06:41:42.464Z,1.20
2022-09-23T06:44:14.263Z,1.03
2022-09-23T06:46:44.221Z,1.20
2022-09-23T06:49:13.468Z,1.10
2022-09-23T06:51:42.380Z,1.30
2022-09-23T06:54:11.301Z,1.37
2022-09-23T06:56:40.291Z,1.47
2022-09-23T06:59:10.833Z,1.80
2022-09-23T07:01:39.321Z,1.33
2022-09-23T07:04:10.295Z,1.90
2022-09-23T07:06:38.608Z,1.70
2022-09-23T07:09:08.460Z,2.60
2022-09-23T07:11:37.597Z,2.40
2022-09-23T07:14:06.144Z,2.40
2022-09-23T07:16:34.462Z,2.87
2022-09-23T07:19:02.726Z,2.10
2022-09-23T07:21:32.853Z,2.00
2022-09-23T07:24:01.058Z,2.10
2022-09-23T07:26:29.646Z,1.60
2022-09-23T07:29:04.925Z,2.43
2022-09-23T07:31:39.494Z,2.07
2022-09-23T07:34:10.048Z,1.70
2022-09-23T07:36:41.391Z,1.53
2022-09-23T07:39:12.223Z,1.93
2022-09-23T07:41:41.801Z,1.30
2022-09-23T07:44:12.004Z,1.67
2022-09-23T07:46:40.469Z,1.33
2022-09-23T07:49:09.288Z,1.67
2022-09-23T07:51:41.075Z,1.47
2022-09-23T07:54:13.312Z,1.67
2022-09-23T07:56:42.509Z,1.80
2022-09-23T07:59:15.608Z,1.40
2022-09-23T08:01:45.429Z,2.17
2022-09-23T08:04:17.178Z,1.40
2022-09-23T08:06:48.735Z,1.60
2022-09-23T08:09:18.604Z,2.00
2022-09-23T08:11:46.840Z,1.67
2022-09-23T08:14:18.027Z,2.27
2022-09-23T08:16:47.740Z,2.00
2022-09-23T08:19:16.515Z,1.90
2022-09-23T08:21:47.853Z,1.60
2022-09-23T08:24:18.172Z,1.77
2022-09-23T08:26:47.517Z,1.40
2022-09-23T08:29:16.950Z,1.90
2022-09-23T08:31:45.452Z,1.60
2022-09-23T08:34:13.688Z,1.43
2022-09-23T08:36:41.954Z,1.00
2022-09-23T08:39:14.920Z,1.40
2022-09-23T08:41:52.915Z,1.03
2022-09-23T08:44:29.241Z,1.10
2022-09-23T08:47:07.559Z,1.40
2022-09-23T08:49:40.909Z,1.00
2022-09-23T08:52:16.848Z,1.50
2022-09-23T08:54:46.587Z,1.10
2022-09-23T08:57:28.423Z,1.30
2022-09-23T08:59:57.165Z,1.30
2022-09-23T09:02:25.415Z,0.93
2022-09-23T09:04:58.526Z,1.03
2022-09-23T09:07:38.428Z,1.00
2022-09-23T09:10:16.847Z,0.97
2022-09-23T09:12:48.362Z,1.07
2022-09-23T09:15:20.141Z,0.80
2022-09-23T09:18:01.334Z,1.00
2022-09-23T09:20:39.060Z,0.83
2022-09-23T09:23:16.775Z,0.90
2022-09-23T09:25:50.591Z,0.90
2022-09-23T09:28:23.259Z,1.00
2022-09-23T09:30:56.071Z,1.00
2022-09-23T09:33:31.024Z,0.90
2022-09-23T09:36:30.840Z,0.80
2022-09-23T09:38:59.850Z,1.00
2022-09-23T09:41:31.653Z,0.70
2022-09-23T09:44:03.562Z,0.70
2022-09-23T09:46:47.174Z,0.60
2022-09-23T09:49:23.949Z,0.50
2022-09-23T09:52:13.500Z,0.80
2022-09-23T09:54:41.880Z,0.70
2022-09-23T09:57:19.763Z,0.60
2022-09-23T09:59:48.076Z,0.93
2022-09-23T10:02:27.706Z,0.70
2022-09-23T10:05:00.317Z,0.60
2022-09-23T10:07:30.825Z,0.57
2022-09-23T10:10:21.844Z,0.80
2022-09-23T10:12:51.034Z,0.55
2022-09-23T10:15:31.421Z,0.80
2022-09-23T10:18:01.317Z,0.80
2022-09-23T10:20:38.256Z,1.23
2022-09-23T10:23:15.547Z,0.75
2022-09-23T10:25:44.157Z,0.70
2022-09-23T10:28:58.510Z,1.00
2022-09-23T10:31:32.172Z,0.70
2022-09-23T10:34:01.985Z,1.08
2022-09-23T10:36:31.809Z,0.80
2022-09-23T10:39:17.597Z,1.00
2022-09-23T10:42:14.600Z,0.90
2022-09-23T10:45:17.453Z,1.00
2022-09-23T10:47:58.984Z,0.60
2022-09-23T10:50:37.361Z,0.80
2022-09-23T10:53:13.090Z,0.70
2022-09-23T10:55:57.535Z,0.50
2022-09-23T10:58:50.629Z,0.60
2022-09-23T11:01:32.357Z,0.68
2022-09-23T11:04:46.491Z,0.82
2022-09-23T11:07:24.203Z,0.80
2022-09-23T11:10:35.410Z,0.70
2022-09-23T11:13:15.441Z,0.57
2022-09-23T11:15:58.080Z,0.70
2022-09-23T11:18:49.857Z,0.50
2022-09-23T11:21:46.712Z,0.68
2022-09-23T11:24:40.972Z,0.80
2022-09-23T11:27:17.416Z,0.50
2022-09-23T11:30:02.840Z,0.55
2022-09-23T11:32:53.695Z,0.50
2022-09-23T11:35:25.755Z,0.50
2022-09-23T11:37:59.999Z,0.60
2022-09-23T11:40:33.715Z,0.77
2022-09-23T11:43:08.428Z,0.70
2022-09-23T11:45:43.765Z,0.60
2022-09-23T11:48:17.449Z,0.80
2022-09-23T11:50:49.358Z,0.50
2022-09-23T11:53:24.768Z,0.70
2022-09-23T11:56:01.031Z,0.80
2022-09-23T11:58:32.832Z,0.68
2022-09-23T12:01:07.231Z,0.70
2022-09-23T12:03:48.350Z,0.73
2022-09-23T12:06:21.194Z,0.80
2022-09-23T12:08:57.664Z,0.90
2022-09-23T12:11:34.794Z,0.80
2022-09-23T12:14:15.710Z,0.77
2022-09-23T12:17:16.418Z,0.77
2022-09-23T12:20:01.411Z,0.60
2022-09-23T12:22:48.454Z,0.70
2022-09-23T12:25:46.533Z,0.60
2022-09-23T12:28:20.849Z,0.90
2022-09-23T12:30:51.162Z,0.75
2022-09-23T12:33:24.967Z,0.90
2022-09-23T12:35:55.480Z,0.85
2022-09-23T12:38:26.774Z,0.90
2022-09-23T12:40:57.738Z,0.90
2022-09-23T12:43:31.357Z,1.23
2022-09-23T12:46:20.023Z,0.80
2022-09-23T12:48:59.480Z,0.90
2022-09-23T12:51:29.168Z,0.90
2022-09-23T12:54:25.235Z,0.60
2022-09-23T12:57:06.630Z,0.60
2022-09-23T12:59:57.328Z,1.00
2022-09-23T13:02:36.003Z,0.70
2022-09-23T13:05:32.779Z,0.70
2022-09-23T13:08:06.372Z,0.90
2022-09-23T13:10:42.605Z,0.68
2022-09-23T13:13:21.506Z,0.80
2022-09-23T13:15:50.169Z,0.68
2022-09-23T13:18:26.362Z,0.70
2022-09-23T13:20:57.086Z,0.70
2022-09-23T13:23:27.119Z,0.70
2022-09-23T13:25:57.553Z,0.80
2022-09-23T13:28:34.539Z,0.50
2022-09-23T13:31:07.084Z,0.40
2022-09-23T13:33:47.335Z,0.60
2022-09-23T13:36:17.117Z,0.57
2022-09-23T13:38:46.930Z,0.70
2022-09-23T13:41:19.076Z,0.63
2022-09-23T13:43:51.311Z,0.60
2022-09-23T13:46:22.508Z,0.57
2022-09-23T13:48:55.376Z,0.60
2022-09-23T13:51:27.537Z,0.70
2022-09-23T13:53:56.903Z,0.60
2022-09-23T13:56:28.244Z,0.85
2022-09-23T13:59:20.741Z,0.70
2022-09-23T14:01:50.100Z,0.52
2022-09-23T14:04:25.494Z,0.57
2022-09-23T14:06:54.551Z,0.68
2022-09-23T14:09:30.306Z,0.60
2022-09-23T14:12:01.242Z,0.80
2022-09-23T14:14:31.855Z,0.75
2022-09-23T14:17:00.609Z,0.65
2022-09-23T14:19:28.817Z,0.60
2022-09-23T14:21:57.573Z,0.65
2022-09-23T14:24:32.961Z,0.68
2022-09-23T14:27:05.441Z,0.80
2022-09-23T14:29:38.719Z,0.70
2022-09-23T14:32:13.118Z,0.70
2022-09-23T14:34:46.813Z,0.52
2022-09-23T14:37:43.375Z,0.70
2022-09-23T14:40:16.433Z,0.60
2022-09-23T14:42:47.724Z,0.88
2022-09-23T14:45:21.910Z,0.50
2022-09-23T14:47:52.510Z,0.80
2022-09-23T14:50:39.717Z,0.98
2022-09-23T14:53:32.346Z,0.60
2022-09-23T14:56:12.710Z,0.70
2022-09-23T14:58:51.977Z,0.50
2022-09-23T15:01:35.849Z,0.70
2022-09-23T15:04:32.483Z,0.50
2022-09-23T15:07:05.498Z,0.60
2022-09-23T15:09:37.462Z,0.57
2022-09-23T15:12:09.621Z,0.40
2022-09-23T15:14:42.041Z,0.50
2022-09-23T15:17:32.651Z,0.60
2022-09-23T15:20:03.365Z,0.75
2022-09-23T15:22:31.652Z,0.60
2022-09-23T15:25:15.981Z,0.60
2022-09-23T15:27:57.738Z,0.60
2022-09-23T15:30:26.384Z,0.63
2022-09-23T15:32:56.041Z,0.82
2022-09-23T15:35:26.888Z,1.00
2022-09-23T15:37:58.982Z,0.60
2022-09-23T15:40:30.495Z,0.50
2022-09-23T15:43:00.770Z,0.70
2022-09-23T15:45:35.169Z,0.47
2022-09-23T15:48:09.019Z,0.70
2022-09-23T15:50:38.251Z,0.70
2022-09-23T15:53:07.171Z,0.60
2022-09-23T15:55:36.656Z,0.60
2022-09-23T15:58:04.884Z,0.73
2022-09-23T16:00:34.854Z,0.60
2022-09-23T16:03:06.748Z,0.68
2022-09-23T16:05:37.969Z,0.70
2022-09-23T16:08:09.227Z,0.40
2022-09-23T16:10:38.430Z,0.70
2022-09-23T16:13:09.125Z,0.80
2022-09-23T16:15:39.185Z,0.60
2022-09-23T16:18:09.420Z,0.50
2022-09-23T16:20:39.646Z,0.60
2022-09-23T16:23:10.033Z,0.70
2022-09-23T16:25:38.880Z,0.70
2022-09-23T16:28:07.205Z,0.77
2022-09-23T16:30:35.845Z,0.50
2022-09-23T16:33:04.081Z,0.70
2022-09-23T16:35:34.787Z,0.63
2022-09-23T16:38:03.100Z,0.73
2022-09-23T16:40:32.095Z,0.60
2022-09-23T16:43:02.289Z,0.70
2022-09-23T16:45:31.375Z,0.60
2022-09-23T16:48:00.683Z,0.80
2022-09-23T16:50:29.686Z,0.83
2022-09-23T16:52:59.365Z,0.80
2022-09-23T16:55:27.630Z,0.60
2022-09-23T16:57:56.578Z,0.70
2022-09-23T17:00:42.451Z,0.90
2022-09-23T17:03:31.146Z,0.70
2022-09-23T17:06:02.367Z,0.60
2022-09-23T17:08:34.743Z,0.70
2022-09-23T17:11:03.190Z,0.60
2022-09-23T17:13:32.533Z,0.67
2022-09-23T17:16:00.863Z,0.57
2022-09-23T17:18:29.799Z,0.60
2022-09-23T17:21:00.071Z,0.60
2022-09-23T17:23:29.081Z,0.60
2022-09-23T17:25:59.073Z,0.80
2022-09-23T17:28:27.402Z,0.73
2022-09-23T17:30:58.907Z,0.60
2022-09-23T17:33:28.366Z,0.80
2022-09-23T17:35:57.258Z,1.07
2022-09-23T17:38:29.184Z,0.50
2022-09-23T17:41:02.184Z,0.60
2022-09-23T17:43:31.601Z,0.40
2022-09-23T17:46:05.338Z,0.50
2022-09-23T17:48:35.024Z,0.40
2022-09-23T17:51:05.144Z,0.60
2022-09-23T17:53:35.670Z,0.50
2022-09-23T17:56:08.503Z,1.57
2022-09-23T17:58:38.260Z,5.60
2022-09-23T18:01:09.708Z,6.17
2022-09-23T18:03:38.136Z,2.90
2022-09-23T18:06:11.753Z,1.50
2022-09-23T18:08:41.391Z,1.83
2022-09-23T18:11:15.805Z,1.20
2022-09-23T18:13:44.614Z,1.20
2022-09-23T18:16:12.883Z,3.10
2022-09-23T18:18:41.260Z,2.47
2022-09-23T18:21:10.544Z,1.50
2022-09-23T18:23:38.914Z,1.23
2022-09-23T18:26:16.644Z,0.80
2022-09-23T18:28:45.593Z,0.80
2022-09-23T18:31:13.842Z,0.80
2022-09-23T18:33:43.468Z,2.10
2022-09-23T18:36:12.665Z,4.10
2022-09-23T18:38:41.005Z,1.37
2022-09-23T18:41:09.416Z,0.60
2022-09-23T18:43:42.235Z,0.60
2022-09-23T18:46:14.263Z,0.60
2022-09-23T18:49:00.558Z,0.60
2022-09-23T18:51:30.763Z,0.70
2022-09-23T18:54:00.482Z,0.70
2022-09-23T18:56:33.635Z,0.70
2022-09-23T18:59:03.574Z,1.17
2022-09-23T19:01:31.924Z,0.80
2022-09-23T19:04:02.478Z,0.80
2022-09-23T19:06:33.089Z,0.80
2022-09-23T19:09:02.314Z,0.77
2022-09-23T19:11:31.213Z,0.70
2022-09-23T19:14:02.050Z,0.77
2022-09-23T19:16:32.296Z,0.80
2022-09-23T19:19:01.181Z,0.90
2022-09-23T19:21:30.124Z,0.90
2022-09-23T19:24:03.441Z,0.60
2022-09-23T19:26:34.308Z,0.83
2022-09-23T19:29:04.464Z,0.63
2022-09-23T19:31:36.145Z,0.80
2022-09-23T19:34:10.233Z,0.80
2022-09-23T19:36:40.657Z,0.90
2022-09-23T19:39:13.390Z,0.87
2022-09-23T19:41:41.855Z,0.80
2022-09-23T19:44:12.085Z,0.70
2022-09-23T19:46:45.352Z,0.70
2022-09-23T19:49:14.174Z,0.77
2022-09-23T19:51:44.261Z,0.70
2022-09-23T19:54:13.197Z,0.70
2022-09-23T19:56:41.502Z,1.10
2022-09-23T19:59:09.988Z,1.20
2022-09-23T20:01:38.962Z,1.00
2022-09-23T20:04:08.946Z,1.07
2022-09-23T20:06:38.391Z,1.17
2022-09-23T20:09:06.936Z,1.50
2022-09-23T20:11:35.389Z,1.40
2022-09-23T20:14:06.445Z,1.20
2022-09-23T20:16:38.178Z,1.00
2022-09-23T20:19:08.145Z,1.43
2022-09-23T20:21:36.664Z,1.10
2022-09-23T20:24:07.095Z,1.30
2022-09-23T20:26:53.301Z,1.50
2022-09-23T20:29:21.536Z,1.30
2022-09-23T20:31:50.049Z,1.20
2022-09-23T20:34:21.266Z,1.10
2022-09-23T20:36:49.710Z,1.23
2022-09-23T20:39:17.914Z,1.37
2022-09-23T20:41:48.189Z,1.50
2022-09-23T20:44:17.500Z,1.80
2022-09-23T20:46:48.909Z,1.40
2022-09-23T20:49:17.906Z,1.50
2022-09-23T20:51:48.954Z,1.40
2022-09-23T20:54:19.288Z,1.47
2022-09-23T20:56:47.778Z,1.37
2022-09-23T20:59:17.854Z,1.20
2022-09-23T21:01:47.804Z,1.43
2022-09-23T21:04:16.583Z,1.33
2022-09-23T21:06:44.885Z,1.30
2022-09-23T21:09:14.563Z,1.23
2022-09-23T21:11:42.842Z,1.30
2022-09-23T21:14:11.100Z,1.50
2022-09-23T21:16:40.232Z,1.43
2022-09-23T21:19:08.742Z,1.63
2022-09-23T21:21:37.632Z,2.57
2022-09-23T21:24:36.098Z,1.60
2022-09-23T21:26:57.682Z,1.73
2022-09-23T21:29:25.899Z,1.23
2022-09-23T21:31:54.146Z,1.50
2022-09-23T21:34:23.534Z,2.13
2022-09-23T21:36:51.873Z,1.60
2022-09-23T21:39:20.364Z,1.80
2022-09-23T21:41:48.616Z,1.57
2022-09-23T21:44:18.368Z,1.33
2022-09-23T21:46:46.756Z,1.70
2022-09-23T21:49:15.576Z,1.30
2022-09-23T21:51:43.921Z,1.20
2022-09-23T21:54:15.759Z,1.67
2022-09-23T21:56:45.419Z,1.53
2022-09-23T21:59:13.689Z,1.40
2022-09-23T22:01:45.061Z,1.30
2022-09-23T22:04:17.202Z,1.90
2022-09-23T22:06:46.858Z,1.53
2022-09-23T22:09:17.197Z,1.23
2022-09-23T22:12:03.019Z,1.47
2022-09-23T22:14:31.399Z,1.70
2022-09-23T22:17:03.788Z,1.67
2022-09-23T22:19:35.321Z,1.67
2022-09-23T22:22:08.209Z,2.23
2022-09-23T22:24:36.538Z,1.70
2022-09-23T22:27:04.958Z,1.80
2022-09-23T22:29:50.838Z,1.47
2022-09-23T22:32:38.267Z,1.80
2022-09-23T22:35:07.565Z,2.23
2022-09-23T22:37:37.313Z,1.73
2022-09-23T22:40:07.722Z,1.50
2022-09-23T22:42:36.565Z,1.60
2022-09-23T22:45:06.394Z,1.70
2022-09-23T22:47:37.730Z,1.70
2022-09-23T22:50:06.479Z,1.37
2022-09-23T22:52:34.964Z,1.90
2022-09-23T22:55:03.783Z,1.77
2022-09-23T22:57:32.407Z,1.93
2022-09-23T23:00:00.889Z,1.53
2022-09-23T23:02:29.105Z,1.77
2022-09-23T23:05:00.535Z,1.80
2022-09-23T23:07:28.808Z,1.83
2022-09-23T23:09:57.053Z,1.90
2022-09-23T23:12:25.347Z,1.93
2022-09-23T23:14:53.564Z,2.00
2022-09-23T23:17:22.022Z,1.83
2022-09-23T23:19:50.960Z,1.40
2022-09-23T23:22:20.627Z,1.70
2022-09-23T23:24:48.898Z,1.70
2022-09-23T23:27:17.201Z,1.83
2022-09-23T23:29:46.391Z,1.67
2022-09-23T23:32:15.734Z,2.10
2022-09-23T23:34:43.946Z,1.27
2022-09-23T23:37:12.238Z,1.80
2022-09-23T23:39:41.981Z,1.00
2022-09-23T23:42:10.245Z,1.47
2022-09-23T23:44:38.594Z,1.87
2022-09-23T23:47:06.936Z,1.40
2022-09-23T23:49:35.213Z,0.90
2022-09-23T23:52:03.805Z,0.77
2022-09-23T23:54:33.021Z,0.90
2022-09-23T23:57:02.684Z,0.90
2022-09-23T23:59:31.088Z,1.13
